Terminal Aerodrome Forecast
Issued by NWS

Home | Current Version | Previous Version | Text Only | Print | Product List | Glossary On
Versions: 1 2 3 4 5 6 7 8 9 10 11 12 13 14 15 16
000
FTUS45 KTFX 012300 RRA
TAFHVR
TAF
KHVR 012341Z 0200/0224 28022G35KT P6SM VCSH SCT060 BKN100
      TEMPO 0200/0203 -SHRA BKN060
     FM020300 28015KT P6SM SCT040 BKN070
     FM020700 30015KT P6SM VCSH SCT030 BKN060
     FM021600 30010KT P6SM BKN080=

USA.gov is the U.S. government's official web portal to all federal, state and local government web resources and services.